sensor_id;sensor_type;location;lat;lon;timestamp;temperature;humidity
18173;DHT22;9211;48.818;9.312;2023-04-15T00:02:16;5.60;99.90
18173;DHT22;9211;48.818;9.312;2023-04-15T00:04:43;6.00;99.90
18173;DHT22;9211;48.818;9.312;2023-04-15T00:07:10;6.00;99.90
18173;DHT22;9211;48.818;9.312;2023-04-15T00:09:37;5.90;99.90
18173;DHT22;9211;48.818;9.312;2023-04-15T00:12:06;5.90;99.90
18173;DHT22;9211;48.818;9.312;2023-04-15T00:14:33;5.90;99.90
18173;DHT22;9211;48.818;9.312;2023-04-15T00:17:01;5.70;99.90
18173;DHT22;9211;48.818;9.312;2023-04-15T00:19:28;5.70;99.90
18173;DHT22;9211;48.818;9.312;2023-04-15T00:21:55;5.70;99.90
18173;DHT22;9211;48.818;9.312;2023-04-15T00:24:22;5.70;99.90
18173;DHT22;9211;48.818;9.312;2023-04-15T00:26:49;5.60;99.90
18173;DHT22;9211;48.818;9.312;2023-04-15T00:29:18;5.70;99.90
18173;DHT22;9211;48.818;9.312;2023-04-15T00:31:45;5.60;99.90
18173;DHT22;9211;48.818;9.312;2023-04-15T00:34:11;5.60;99.90
18173;DHT22;9211;48.818;9.312;2023-04-15T00:36:42;5.60;99.90
18173;DHT22;9211;48.818;9.312;2023-04-15T00:39:09;5.50;99.90
18173;DHT22;9211;48.818;9.312;2023-04-15T00:41:36;5.40;99.90
18173;DHT22;9211;48.818;9.312;2023-04-15T00:44:05;5.40;99.90
18173;DHT22;9211;48.818;9.312;2023-04-15T00:46:35;5.40;99.90
18173;DHT22;9211;48.818;9.312;2023-04-15T00:49:04;5.40;99.90
18173;DHT22;9211;48.818;9.312;2023-04-15T00:51:32;5.30;99.90
18173;DHT22;9211;48.818;9.312;2023-04-15T00:54:01;5.30;99.90
18173;DHT22;9211;48.818;9.312;2023-04-15T00:56:28;5.30;99.90
18173;DHT22;9211;48.818;9.312;2023-04-15T00:58:56;5.30;99.90
18173;DHT22;9211;48.818;9.312;2023-04-15T01:01:25;5.20;99.90
18173;DHT22;9211;48.818;9.312;2023-04-15T01:03:55;5.10;99.90
18173;DHT22;9211;48.818;9.312;2023-04-15T01:06:23;5.10;99.90
18173;DHT22;9211;48.818;9.312;2023-04-15T01:08:51;5.10;99.90
18173;DHT22;9211;48.818;9.312;2023-04-15T01:11:19;5.10;99.90
18173;DHT22;9211;48.818;9.312;2023-04-15T01:13:46;4.90;99.90
18173;DHT22;9211;48.818;9.312;2023-04-15T01:16:13;5.00;99.90
18173;DHT22;9211;48.818;9.312;2023-04-15T01:18:41;5.00;99.90
18173;DHT22;9211;48.818;9.312;2023-04-15T01:21:10;4.90;99.90
18173;DHT22;9211;48.818;9.312;2023-04-15T01:23:37;4.90;99.90
18173;DHT22;9211;48.818;9.312;2023-04-15T01:26:07;4.90;99.90
18173;DHT22;9211;48.818;9.312;2023-04-15T01:28:35;4.90;99.90
18173;DHT22;9211;48.818;9.312;2023-04-15T01:31:07;5.00;99.90
18173;DHT22;9211;48.818;9.312;2023-04-15T01:33:36;5.00;99.90
18173;DHT22;9211;48.818;9.312;2023-04-15T01:36:05;5.10;99.90
18173;DHT22;9211;48.818;9.312;2023-04-15T01:38:33;4.90;99.90
18173;DHT22;9211;48.818;9.312;2023-04-15T01:41:00;4.80;99.90
18173;DHT22;9211;48.818;9.312;2023-04-15T01:43:29;4.70;99.90
18173;DHT22;9211;48.818;9.312;2023-04-15T01:45:57;4.80;99.90
18173;DHT22;9211;48.818;9.312;2023-04-15T01:48:24;4.80;99.90
18173;DHT22;9211;48.818;9.312;2023-04-15T01:50:53;4.80;99.90
18173;DHT22;9211;48.818;9.312;2023-04-15T01:53:21;4.60;99.90
18173;DHT22;9211;48.818;9.312;2023-04-15T01:55:49;4.60;99.90
18173;DHT22;9211;48.818;9.312;2023-04-15T01:58:16;4.70;99.90
18173;DHT22;9211;48.818;9.312;2023-04-15T02:03:27;4.60;99.90
18173;DHT22;9211;48.818;9.312;2023-04-15T02:05:54;4.60;99.90
18173;DHT22;9211;48.818;9.312;2023-04-15T02:08:21;4.60;99.90
18173;DHT22;9211;48.818;9.312;2023-04-15T02:10:48;4.50;99.90
18173;DHT22;9211;48.818;9.312;2023-04-15T02:13:15;4.50;99.90
18173;DHT22;9211;48.818;9.312;2023-04-15T02:15:46;4.40;99.90
18173;DHT22;9211;48.818;9.312;2023-04-15T02:18:13;4.50;99.90
18173;DHT22;9211;48.818;9.312;2023-04-15T02:20:44;4.60;99.90
18173;DHT22;9211;48.818;9.312;2023-04-15T02:23:12;4.50;99.90
18173;DHT22;9211;48.818;9.312;2023-04-15T02:25:39;4.60;99.90
18173;DHT22;9211;48.818;9.312;2023-04-15T02:28:06;4.60;99.90
18173;DHT22;9211;48.818;9.312;2023-04-15T02:30:33;4.50;99.90
18173;DHT22;9211;48.818;9.312;2023-04-15T02:33:01;4.40;99.90
18173;DHT22;9211;48.818;9.312;2023-04-15T02:35:29;4.30;99.90
18173;DHT22;9211;48.818;9.312;2023-04-15T02:37:57;4.20;99.90
18173;DHT22;9211;48.818;9.312;2023-04-15T02:40:26;4.20;99.90
18173;DHT22;9211;48.818;9.312;2023-04-15T02:42:52;4.30;99.90
18173;DHT22;9211;48.818;9.312;2023-04-15T02:45:20;4.20;99.90
18173;DHT22;9211;48.818;9.312;2023-04-15T02:47:48;4.10;99.90
18173;DHT22;9211;48.818;9.312;2023-04-15T02:50:16;4.00;99.90
18173;DHT22;9211;48.818;9.312;2023-04-15T02:52:43;4.00;99.90
18173;DHT22;9211;48.818;9.312;2023-04-15T02:55:12;4.10;99.90
18173;DHT22;9211;48.818;9.312;2023-04-15T02:57:39;4.00;99.90
18173;DHT22;9211;48.818;9.312;2023-04-15T03:00:09;4.10;99.90
18173;DHT22;9211;48.818;9.312;2023-04-15T03:02:39;4.00;99.90
18173;DHT22;9211;48.818;9.312;2023-04-15T03:05:10;4.00;99.90
18173;DHT22;9211;48.818;9.312;2023-04-15T03:07:40;4.10;99.90
18173;DHT22;9211;48.818;9.312;2023-04-15T03:10:08;4.10;99.90
18173;DHT22;9211;48.818;9.312;2023-04-15T03:12:36;4.10;99.90
18173;DHT22;9211;48.818;9.312;2023-04-15T03:15:05;4.10;99.90
18173;DHT22;9211;48.818;9.312;2023-04-15T03:17:36;4.20;99.90
18173;DHT22;9211;48.818;9.312;2023-04-15T03:20:05;4.20;99.90
18173;DHT22;9211;48.818;9.312;2023-04-15T03:22:33;4.20;99.90
18173;DHT22;9211;48.818;9.312;2023-04-15T03:25:00;4.10;99.90
18173;DHT22;9211;48.818;9.312;2023-04-15T03:27:27;4.00;99.90
18173;DHT22;9211;48.818;9.312;2023-04-15T03:29:59;4.00;99.90
18173;DHT22;9211;48.818;9.312;2023-04-15T03:32:29;4.10;99.90
18173;DHT22;9211;48.818;9.312;2023-04-15T03:34:57;4.00;99.90
18173;DHT22;9211;48.818;9.312;2023-04-15T03:37:23;4.10;99.90
18173;DHT22;9211;48.818;9.312;2023-04-15T03:39:50;4.10;99.90
18173;DHT22;9211;48.818;9.312;2023-04-15T03:42:17;4.10;99.90
18173;DHT22;9211;48.818;9.312;2023-04-15T03:44:44;4.10;99.90
18173;DHT22;9211;48.818;9.312;2023-04-15T03:47:13;4.20;99.90
18173;DHT22;9211;48.818;9.312;2023-04-15T03:49:40;4.20;99.90
18173;DHT22;9211;48.818;9.312;2023-04-15T03:52:07;4.20;99.90
18173;DHT22;9211;48.818;9.312;2023-04-15T03:54:34;4.30;99.90
18173;DHT22;9211;48.818;9.312;2023-04-15T03:57:01;4.30;99.90
18173;DHT22;9211;48.818;9.312;2023-04-15T03:59:28;4.40;99.90
18173;DHT22;9211;48.818;9.312;2023-04-15T04:01:55;4.40;99.90
18173;DHT22;9211;48.818;9.312;2023-04-15T04:04:23;4.40;99.90
18173;DHT22;9211;48.818;9.312;2023-04-15T04:06:50;4.40;99.90
18173;DHT22;9211;48.818;9.312;2023-04-15T04:09:17;4.30;99.90
18173;DHT22;9211;48.818;9.312;2023-04-15T04:11:44;4.50;99.90
18173;DHT22;9211;48.818;9.312;2023-04-15T04:14:11;4.20;99.90
18173;DHT22;9211;48.818;9.312;2023-04-15T04:16:38;4.30;99.90
18173;DHT22;9211;48.818;9.312;2023-04-15T04:19:05;4.30;99.90
18173;DHT22;9211;48.818;9.312;2023-04-15T04:21:33;4.20;99.90
18173;DHT22;9211;48.818;9.312;2023-04-15T04:24:01;4.20;99.90
18173;DHT22;9211;48.818;9.312;2023-04-15T04:26:28;4.10;99.90
18173;DHT22;9211;48.818;9.312;2023-04-15T04:28:55;4.10;99.90
18173;DHT22;9211;48.818;9.312;2023-04-15T04:31:22;3.90;99.90
18173;DHT22;9211;48.818;9.312;2023-04-15T04:33:48;4.00;99.90
18173;DHT22;9211;48.818;9.312;2023-04-15T04:36:15;4.10;99.90
18173;DHT22;9211;48.818;9.312;2023-04-15T04:38:44;4.00;99.90
18173;DHT22;9211;48.818;9.312;2023-04-15T04:41:11;3.90;99.90
18173;DHT22;9211;48.818;9.312;2023-04-15T04:43:38;3.90;99.90
18173;DHT22;9211;48.818;9.312;2023-04-15T04:46:05;3.80;99.90
18173;DHT22;9211;48.818;9.312;2023-04-15T04:48:32;3.80;99.90
18173;DHT22;9211;48.818;9.312;2023-04-15T04:50:59;3.70;99.90
18173;DHT22;9211;48.818;9.312;2023-04-15T04:53:26;3.70;99.90
18173;DHT22;9211;48.818;9.312;2023-04-15T04:55:55;3.80;99.90
18173;DHT22;9211;48.818;9.312;2023-04-15T04:58:22;3.80;99.90
18173;DHT22;9211;48.818;9.312;2023-04-15T05:00:49;3.80;99.90
18173;DHT22;9211;48.818;9.312;2023-04-15T05:03:16;3.80;99.90
18173;DHT22;9211;48.818;9.312;2023-04-15T05:05:43;3.90;99.90
18173;DHT22;9211;48.818;9.312;2023-04-15T05:08:10;3.80;99.90
18173;DHT22;9211;48.818;9.312;2023-04-15T05:10:37;3.90;99.90
18173;DHT22;9211;48.818;9.312;2023-04-15T05:13:05;3.90;99.90
18173;DHT22;9211;48.818;9.312;2023-04-15T05:15:32;3.90;99.90
18173;DHT22;9211;48.818;9.312;2023-04-15T05:18:01;3.90;99.90
18173;DHT22;9211;48.818;9.312;2023-04-15T05:20:28;4.00;99.90
18173;DHT22;9211;48.818;9.312;2023-04-15T05:22:55;4.00;99.90
18173;DHT22;9211;48.818;9.312;2023-04-15T05:25:22;4.00;99.90
18173;DHT22;9211;48.818;9.312;2023-04-15T05:27:49;4.10;99.90
18173;DHT22;9211;48.818;9.312;2023-04-15T05:30:17;4.10;99.90
18173;DHT22;9211;48.818;9.312;2023-04-15T05:32:44;4.10;99.90
18173;DHT22;9211;48.818;9.312;2023-04-15T05:35:11;4.00;99.90
18173;DHT22;9211;48.818;9.312;2023-04-15T05:37:38;4.00;99.90
18173;DHT22;9211;48.818;9.312;2023-04-15T05:40:06;4.00;99.90
18173;DHT22;9211;48.818;9.312;2023-04-15T05:42:35;4.00;99.90
18173;DHT22;9211;48.818;9.312;2023-04-15T05:45:02;4.00;99.90
18173;DHT22;9211;48.818;9.312;2023-04-15T05:47:35;4.10;99.90
18173;DHT22;9211;48.818;9.312;2023-04-15T05:50:02;4.20;99.90
18173;DHT22;9211;48.818;9.312;2023-04-15T05:52:30;4.10;99.90
18173;DHT22;9211;48.818;9.312;2023-04-15T05:54:57;4.10;99.90
18173;DHT22;9211;48.818;9.312;2023-04-15T05:57:24;4.20;99.90
18173;DHT22;9211;48.818;9.312;2023-04-15T05:59:51;4.30;99.90
18173;DHT22;9211;48.818;9.312;2023-04-15T06:02:18;4.30;99.90
18173;DHT22;9211;48.818;9.312;2023-04-15T06:04:47;4.50;99.90
18173;DHT22;9211;48.818;9.312;2023-04-15T06:07:15;4.50;99.90
18173;DHT22;9211;48.818;9.312;2023-04-15T06:09:42;4.70;99.90
18173;DHT22;9211;48.818;9.312;2023-04-15T06:12:09;4.70;99.90
18173;DHT22;9211;48.818;9.312;2023-04-15T06:14:37;4.80;99.90
18173;DHT22;9211;48.818;9.312;2023-04-15T06:17:05;4.90;99.90
18173;DHT22;9211;48.818;9.312;2023-04-15T06:19:32;4.90;99.90
18173;DHT22;9211;48.818;9.312;2023-04-15T06:22:00;4.90;99.90
18173;DHT22;9211;48.818;9.312;2023-04-15T06:24:27;5.00;99.90
18173;DHT22;9211;48.818;9.312;2023-04-15T06:26:55;5.10;99.90
18173;DHT22;9211;48.818;9.312;2023-04-15T06:29:22;5.30;99.90
18173;DHT22;9211;48.818;9.312;2023-04-15T06:31:49;5.30;99.90
18173;DHT22;9211;48.818;9.312;2023-04-15T06:34:16;5.40;99.90
18173;DHT22;9211;48.818;9.312;2023-04-15T06:36:43;5.50;99.90
18173;DHT22;9211;48.818;9.312;2023-04-15T06:39:11;5.60;99.90
18173;DHT22;9211;48.818;9.312;2023-04-15T06:41:38;5.70;99.90
18173;DHT22;9211;48.818;9.312;2023-04-15T06:44:06;5.80;99.90
18173;DHT22;9211;48.818;9.312;2023-04-15T06:46:33;5.80;99.90
18173;DHT22;9211;48.818;9.312;2023-04-15T06:49:00;5.90;99.90
18173;DHT22;9211;48.818;9.312;2023-04-15T06:51:27;5.90;99.90
18173;DHT22;9211;48.818;9.312;2023-04-15T06:53:53;6.00;99.90
18173;DHT22;9211;48.818;9.312;2023-04-15T06:56:22;5.90;99.90
18173;DHT22;9211;48.818;9.312;2023-04-15T06:58:49;6.00;99.90
18173;DHT22;9211;48.818;9.312;2023-04-15T07:01:16;6.10;99.90
18173;DHT22;9211;48.818;9.312;2023-04-15T07:03:43;6.20;99.90
18173;DHT22;9211;48.818;9.312;2023-04-15T07:06:10;6.20;99.90
18173;DHT22;9211;48.818;9.312;2023-04-15T07:08:37;6.20;99.90
18173;DHT22;9211;48.818;9.312;2023-04-15T07:11:04;6.30;99.90
18173;DHT22;9211;48.818;9.312;2023-04-15T07:13:33;6.30;99.90
18173;DHT22;9211;48.818;9.312;2023-04-15T07:16:00;6.40;99.90
18173;DHT22;9211;48.818;9.312;2023-04-15T07:18:27;6.40;99.90
18173;DHT22;9211;48.818;9.312;2023-04-15T07:20:55;6.50;99.90
18173;DHT22;9211;48.818;9.312;2023-04-15T07:23:22;6.50;99.90
18173;DHT22;9211;48.818;9.312;2023-04-15T07:25:49;6.70;99.90
18173;DHT22;9211;48.818;9.312;2023-04-15T07:28:16;6.80;99.90
18173;DHT22;9211;48.818;9.312;2023-04-15T07:30:45;6.80;99.90
18173;DHT22;9211;48.818;9.312;2023-04-15T07:33:12;7.10;99.90
18173;DHT22;9211;48.818;9.312;2023-04-15T07:35:39;7.20;99.90
18173;DHT22;9211;48.818;9.312;2023-04-15T07:38:06;7.20;99.90
18173;DHT22;9211;48.818;9.312;2023-04-15T07:40:33;7.40;99.90
18173;DHT22;9211;48.818;9.312;2023-04-15T07:43:00;7.60;99.90
18173;DHT22;9211;48.818;9.312;2023-04-15T07:45:28;7.70;99.90
18173;DHT22;9211;48.818;9.312;2023-04-15T07:47:56;7.80;99.90
18173;DHT22;9211;48.818;9.312;2023-04-15T07:50:23;7.80;99.90
18173;DHT22;9211;48.818;9.312;2023-04-15T07:52:50;7.90;99.90
18173;DHT22;9211;48.818;9.312;2023-04-15T07:55:17;8.00;99.90
18173;DHT22;9211;48.818;9.312;2023-04-15T07:57:47;8.00;99.90
18173;DHT22;9211;48.818;9.312;2023-04-15T08:00:15;8.10;99.90
18173;DHT22;9211;48.818;9.312;2023-04-15T08:02:43;8.20;99.90
18173;DHT22;9211;48.818;9.312;2023-04-15T08:05:13;8.40;99.90
18173;DHT22;9211;48.818;9.312;2023-04-15T08:07:41;8.40;99.90
18173;DHT22;9211;48.818;9.312;2023-04-15T08:10:08;8.40;99.90
18173;DHT22;9211;48.818;9.312;2023-04-15T08:12:35;8.50;99.90
18173;DHT22;9211;48.818;9.312;2023-04-15T08:15:03;8.50;99.90
18173;DHT22;9211;48.818;9.312;2023-04-15T08:17:30;8.60;99.90
18173;DHT22;9211;48.818;9.312;2023-04-15T08:19:57;8.60;99.90
18173;DHT22;9211;48.818;9.312;2023-04-15T08:22:25;8.60;99.90
18173;DHT22;9211;48.818;9.312;2023-04-15T08:24:53;8.80;99.90
18173;DHT22;9211;48.818;9.312;2023-04-15T08:27:20;8.80;99.90
18173;DHT22;9211;48.818;9.312;2023-04-15T08:29:47;8.80;99.90
18173;DHT22;9211;48.818;9.312;2023-04-15T08:32:14;8.90;99.90
18173;DHT22;9211;48.818;9.312;2023-04-15T08:34:42;9.00;99.90
18173;DHT22;9211;48.818;9.312;2023-04-15T08:37:09;9.20;99.90
18173;DHT22;9211;48.818;9.312;2023-04-15T08:39:37;9.20;99.90
18173;DHT22;9211;48.818;9.312;2023-04-15T08:42:10;9.30;99.90
18173;DHT22;9211;48.818;9.312;2023-04-15T08:44:38;9.40;99.90
18173;DHT22;9211;48.818;9.312;2023-04-15T08:47:07;9.50;99.90
18173;DHT22;9211;48.818;9.312;2023-04-15T08:49:36;9.60;99.90
18173;DHT22;9211;48.818;9.312;2023-04-15T08:52:05;9.60;99.90
18173;DHT22;9211;48.818;9.312;2023-04-15T08:54:32;9.70;99.90
18173;DHT22;9211;48.818;9.312;2023-04-15T08:57:01;9.90;99.90
18173;DHT22;9211;48.818;9.312;2023-04-15T08:59:29;10.00;99.90
18173;DHT22;9211;48.818;9.312;2023-04-15T09:01:56;10.10;99.90
18173;DHT22;9211;48.818;9.312;2023-04-15T09:04:23;10.10;99.90
18173;DHT22;9211;48.818;9.312;2023-04-15T09:06:50;10.20;99.90
18173;DHT22;9211;48.818;9.312;2023-04-15T09:09:17;10.40;99.90
18173;DHT22;9211;48.818;9.312;2023-04-15T09:11:44;10.50;99.90
18173;DHT22;9211;48.818;9.312;2023-04-15T09:14:13;10.60;99.90
18173;DHT22;9211;48.818;9.312;2023-04-15T09:16:56;10.80;99.90
18173;DHT22;9211;48.818;9.312;2023-04-15T09:19:23;11.00;99.90
18173;DHT22;9211;48.818;9.312;2023-04-15T09:21:53;11.10;99.90
18173;DHT22;9211;48.818;9.312;2023-04-15T09:24:21;11.20;99.90
18173;DHT22;9211;48.818;9.312;2023-04-15T09:26:51;11.40;99.90
18173;DHT22;9211;48.818;9.312;2023-04-15T09:29:23;11.60;99.90
18173;DHT22;9211;48.818;9.312;2023-04-15T09:31:51;11.70;99.90
18173;DHT22;9211;48.818;9.312;2023-04-15T09:34:18;11.80;99.90
18173;DHT22;9211;48.818;9.312;2023-04-15T09:36:53;12.00;99.90
18173;DHT22;9211;48.818;9.312;2023-04-15T09:39:21;12.10;99.90
18173;DHT22;9211;48.818;9.312;2023-04-15T09:42:03;12.20;99.90
18173;DHT22;9211;48.818;9.312;2023-04-15T09:44:33;12.20;99.90
18173;DHT22;9211;48.818;9.312;2023-04-15T09:47:00;12.40;99.90
18173;DHT22;9211;48.818;9.312;2023-04-15T09:49:27;12.50;99.90
18173;DHT22;9211;48.818;9.312;2023-04-15T09:51:58;12.60;99.90
18173;DHT22;9211;48.818;9.312;2023-04-15T09:54:32;12.70;99.90
18173;DHT22;9211;48.818;9.312;2023-04-15T09:57:08;12.80;99.90
18173;DHT22;9211;48.818;9.312;2023-04-15T09:59:38;12.70;99.90
18173;DHT22;9211;48.818;9.312;2023-04-15T10:02:05;12.70;99.90
18173;DHT22;9211;48.818;9.312;2023-04-15T10:04:35;12.60;99.90
18173;DHT22;9211;48.818;9.312;2023-04-15T10:07:04;12.60;99.90
18173;DHT22;9211;48.818;9.312;2023-04-15T10:09:31;12.50;99.90
18173;DHT22;9211;48.818;9.312;2023-04-15T10:11:59;12.60;99.90
18173;DHT22;9211;48.818;9.312;2023-04-15T10:14:27;12.70;99.90
18173;DHT22;9211;48.818;9.312;2023-04-15T10:17:01;12.80;99.90
18173;DHT22;9211;48.818;9.312;2023-04-15T10:19:30;13.00;99.90
18173;DHT22;9211;48.818;9.312;2023-04-15T10:21:58;13.20;99.90
18173;DHT22;9211;48.818;9.312;2023-04-15T10:24:25;13.30;99.90
18173;DHT22;9211;48.818;9.312;2023-04-15T10:26:53;13.40;99.90
18173;DHT22;9211;48.818;9.312;2023-04-15T10:29:20;13.40;99.90
18173;DHT22;9211;48.818;9.312;2023-04-15T10:31:48;13.50;99.90
18173;DHT22;9211;48.818;9.312;2023-04-15T10:34:17;13.60;99.90
18173;DHT22;9211;48.818;9.312;2023-04-15T10:36:45;13.70;99.90
18173;DHT22;9211;48.818;9.312;2023-04-15T10:39:37;13.70;99.90
18173;DHT22;9211;48.818;9.312;2023-04-15T10:42:09;13.60;99.90
18173;DHT22;9211;48.818;9.312;2023-04-15T10:44:37;13.70;99.90
18173;DHT22;9211;48.818;9.312;2023-04-15T10:47:09;13.80;99.90
18173;DHT22;9211;48.818;9.312;2023-04-15T10:49:47;13.90;99.90
18173;DHT22;9211;48.818;9.312;2023-04-15T10:52:16;14.00;99.90
18173;DHT22;9211;48.818;9.312;2023-04-15T10:54:43;14.00;99.90
18173;DHT22;9211;48.818;9.312;2023-04-15T10:57:16;14.10;99.90
18173;DHT22;9211;48.818;9.312;2023-04-15T11:00:10;14.10;99.90
18173;DHT22;9211;48.818;9.312;2023-04-15T11:02:39;14.10;99.90
18173;DHT22;9211;48.818;9.312;2023-04-15T11:05:08;14.20;99.90
18173;DHT22;9211;48.818;9.312;2023-04-15T11:07:37;14.20;99.90
18173;DHT22;9211;48.818;9.312;2023-04-15T11:13:25;14.30;99.90
18173;DHT22;9211;48.818;9.312;2023-04-15T11:15:57;14.20;99.90
18173;DHT22;9211;48.818;9.312;2023-04-15T11:18:28;14.20;99.90
18173;DHT22;9211;48.818;9.312;2023-04-15T11:20:59;14.40;99.90
18173;DHT22;9211;48.818;9.312;2023-04-15T11:23:29;14.50;99.90
18173;DHT22;9211;48.818;9.312;2023-04-15T11:25:58;14.60;99.90
18173;DHT22;9211;48.818;9.312;2023-04-15T11:28:25;14.60;99.90
18173;DHT22;9211;48.818;9.312;2023-04-15T11:30:53;14.70;99.90
18173;DHT22;9211;48.818;9.312;2023-04-15T11:33:22;14.70;99.90
18173;DHT22;9211;48.818;9.312;2023-04-15T11:35:50;14.60;99.90
18173;DHT22;9211;48.818;9.312;2023-04-15T11:38:22;14.60;99.90
18173;DHT22;9211;48.818;9.312;2023-04-15T11:40:50;14.50;99.90
18173;DHT22;9211;48.818;9.312;2023-04-15T11:43:19;14.40;99.90
18173;DHT22;9211;48.818;9.312;2023-04-15T11:45:49;14.50;99.90
18173;DHT22;9211;48.818;9.312;2023-04-15T11:48:17;14.60;99.90
18173;DHT22;9211;48.818;9.312;2023-04-15T11:50:45;14.60;99.90
18173;DHT22;9211;48.818;9.312;2023-04-15T11:53:12;14.60;99.90
18173;DHT22;9211;48.818;9.312;2023-04-15T11:55:45;14.60;99.90
18173;DHT22;9211;48.818;9.312;2023-04-15T11:58:14;14.50;99.90
18173;DHT22;9211;48.818;9.312;2023-04-15T12:00:46;14.50;99.90
18173;DHT22;9211;48.818;9.312;2023-04-15T12:03:18;14.40;99.90
18173;DHT22;9211;48.818;9.312;2023-04-15T12:06:14;14.50;99.90
18173;DHT22;9211;48.818;9.312;2023-04-15T12:08:58;14.30;99.90
18173;DHT22;9211;48.818;9.312;2023-04-15T12:11:38;14.20;99.90
18173;DHT22;9211;48.818;9.312;2023-04-15T12:14:18;14.10;99.90
18173;DHT22;9211;48.818;9.312;2023-04-15T12:16:47;14.00;99.90
18173;DHT22;9211;48.818;9.312;2023-04-15T12:19:18;14.00;99.90
18173;DHT22;9211;48.818;9.312;2023-04-15T12:21:47;13.90;99.90
18173;DHT22;9211;48.818;9.312;2023-04-15T12:24:14;13.80;99.90
18173;DHT22;9211;48.818;9.312;2023-04-15T12:26:47;13.80;99.90
18173;DHT22;9211;48.818;9.312;2023-04-15T12:29:15;13.70;99.90
18173;DHT22;9211;48.818;9.312;2023-04-15T12:31:47;13.70;99.90
18173;DHT22;9211;48.818;9.312;2023-04-15T12:34:16;13.50;99.90
18173;DHT22;9211;48.818;9.312;2023-04-15T12:36:44;13.30;99.90
18173;DHT22;9211;48.818;9.312;2023-04-15T12:39:12;13.00;99.90
18173;DHT22;9211;48.818;9.312;2023-04-15T12:41:39;12.80;99.90
18173;DHT22;9211;48.818;9.312;2023-04-15T12:44:07;12.60;99.90
18173;DHT22;9211;48.818;9.312;2023-04-15T12:46:34;12.40;99.90
18173;DHT22;9211;48.818;9.312;2023-04-15T12:49:01;12.20;99.90
18173;DHT22;9211;48.818;9.312;2023-04-15T12:51:29;12.10;99.90
18173;DHT22;9211;48.818;9.312;2023-04-15T12:53:57;11.90;99.90
18173;DHT22;9211;48.818;9.312;2023-04-15T12:56:24;11.70;99.90
18173;DHT22;9211;48.818;9.312;2023-04-15T12:58:51;11.70;99.90
18173;DHT22;9211;48.818;9.312;2023-04-15T13:01:19;11.60;99.90
18173;DHT22;9211;48.818;9.312;2023-04-15T13:03:46;11.70;99.90
18173;DHT22;9211;48.818;9.312;2023-04-15T13:06:15;11.70;99.90
18173;DHT22;9211;48.818;9.312;2023-04-15T13:08:42;11.80;99.90
18173;DHT22;9211;48.818;9.312;2023-04-15T13:11:09;11.80;99.90
18173;DHT22;9211;48.818;9.312;2023-04-15T13:13:36;11.90;99.90
18173;DHT22;9211;48.818;9.312;2023-04-15T13:16:03;12.00;99.90
18173;DHT22;9211;48.818;9.312;2023-04-15T13:18:32;12.00;99.90
18173;DHT22;9211;48.818;9.312;2023-04-15T13:20:59;12.10;99.90
18173;DHT22;9211;48.818;9.312;2023-04-15T13:23:26;12.10;99.90
18173;DHT22;9211;48.818;9.312;2023-04-15T13:25:53;12.20;99.90
18173;DHT22;9211;48.818;9.312;2023-04-15T13:28:20;12.30;99.90
18173;DHT22;9211;48.818;9.312;2023-04-15T13:30:47;12.50;99.90
18173;DHT22;9211;48.818;9.312;2023-04-15T13:33:15;12.50;99.90
18173;DHT22;9211;48.818;9.312;2023-04-15T13:35:44;12.70;99.90
18173;DHT22;9211;48.818;9.312;2023-04-15T13:38:11;12.70;99.90
18173;DHT22;9211;48.818;9.312;2023-04-15T13:40:38;12.80;99.90
18173;DHT22;9211;48.818;9.312;2023-04-15T13:43:05;12.80;99.90
18173;DHT22;9211;48.818;9.312;2023-04-15T13:45:32;12.80;99.90
18173;DHT22;9211;48.818;9.312;2023-04-15T13:47:59;12.80;99.90
18173;DHT22;9211;48.818;9.312;2023-04-15T13:50:27;12.90;99.90
18173;DHT22;9211;48.818;9.312;2023-04-15T13:52:55;12.90;99.90
18173;DHT22;9211;48.818;9.312;2023-04-15T13:55:22;12.80;99.90
18173;DHT22;9211;48.818;9.312;2023-04-15T13:57:49;12.80;99.90
18173;DHT22;9211;48.818;9.312;2023-04-15T14:00:16;12.80;99.90
18173;DHT22;9211;48.818;9.312;2023-04-15T14:02:43;12.90;99.90
18173;DHT22;9211;48.818;9.312;2023-04-15T14:05:11;12.80;99.90
18173;DHT22;9211;48.818;9.312;2023-04-15T14:07:38;12.80;99.90
18173;DHT22;9211;48.818;9.312;2023-04-15T14:10:07;12.70;99.90
18173;DHT22;9211;48.818;9.312;2023-04-15T14:12:34;12.70;99.90
18173;DHT22;9211;48.818;9.312;2023-04-15T14:15:01;12.70;99.90
18173;DHT22;9211;48.818;9.312;2023-04-15T14:17:28;12.70;99.90
18173;DHT22;9211;48.818;9.312;2023-04-15T14:19:55;12.70;99.90
18173;DHT22;9211;48.818;9.312;2023-04-15T14:22:22;12.70;99.90
18173;DHT22;9211;48.818;9.312;2023-04-15T14:24:49;12.60;99.90
18173;DHT22;9211;48.818;9.312;2023-04-15T14:27:19;12.70;99.90
18173;DHT22;9211;48.818;9.312;2023-04-15T14:29:46;12.60;99.90
18173;DHT22;9211;48.818;9.312;2023-04-15T14:32:13;12.60;99.90
18173;DHT22;9211;48.818;9.312;2023-04-15T14:34:40;12.50;99.90
18173;DHT22;9211;48.818;9.312;2023-04-15T14:37:07;12.50;99.90
18173;DHT22;9211;48.818;9.312;2023-04-15T14:39:34;12.50;99.90
18173;DHT22;9211;48.818;9.312;2023-04-15T14:42:01;12.50;99.90
18173;DHT22;9211;48.818;9.312;2023-04-15T14:44:30;12.40;99.90
18173;DHT22;9211;48.818;9.312;2023-04-15T14:46:56;12.40;99.90
18173;DHT22;9211;48.818;9.312;2023-04-15T14:49:23;12.30;99.90
18173;DHT22;9211;48.818;9.312;2023-04-15T14:51:50;12.30;99.90
18173;DHT22;9211;48.818;9.312;2023-04-15T14:54:17;12.30;99.90
18173;DHT22;9211;48.818;9.312;2023-04-15T14:56:44;12.30;99.90
18173;DHT22;9211;48.818;9.312;2023-04-15T14:59:14;12.30;99.90
18173;DHT22;9211;48.818;9.312;2023-04-15T15:01:42;12.30;99.90
18173;DHT22;9211;48.818;9.312;2023-04-15T15:04:09;12.30;99.90
18173;DHT22;9211;48.818;9.312;2023-04-15T15:06:36;12.30;99.90
18173;DHT22;9211;48.818;9.312;2023-04-15T15:09:03;12.20;99.90
18173;DHT22;9211;48.818;9.312;2023-04-15T15:11:30;12.10;99.90
18173;DHT22;9211;48.818;9.312;2023-04-15T15:13:57;12.00;99.90
18173;DHT22;9211;48.818;9.312;2023-04-15T15:16:24;11.90;99.90
18173;DHT22;9211;48.818;9.312;2023-04-15T15:18:53;11.80;99.90
18173;DHT22;9211;48.818;9.312;2023-04-15T15:21:20;11.80;99.90
18173;DHT22;9211;48.818;9.312;2023-04-15T15:23:47;11.70;99.90
18173;DHT22;9211;48.818;9.312;2023-04-15T15:26:14;11.60;99.90
18173;DHT22;9211;48.818;9.312;2023-04-15T15:28:42;11.60;99.90
18173;DHT22;9211;48.818;9.312;2023-04-15T15:31:10;11.50;99.90
18173;DHT22;9211;48.818;9.312;2023-04-15T15:33:37;11.50;99.90
18173;DHT22;9211;48.818;9.312;2023-04-15T15:36:05;11.50;99.90
18173;DHT22;9211;48.818;9.312;2023-04-15T15:38:32;11.50;99.90
18173;DHT22;9211;48.818;9.312;2023-04-15T15:40:59;11.50;99.90
18173;DHT22;9211;48.818;9.312;2023-04-15T15:43:26;11.40;99.90
18173;DHT22;9211;48.818;9.312;2023-04-15T15:45:53;11.40;99.90
18173;DHT22;9211;48.818;9.312;2023-04-15T15:48:21;11.30;99.90
18173;DHT22;9211;48.818;9.312;2023-04-15T15:50:48;11.30;99.90
18173;DHT22;9211;48.818;9.312;2023-04-15T15:53:17;11.30;99.90
18173;DHT22;9211;48.818;9.312;2023-04-15T15:55:45;11.20;99.90
18173;DHT22;9211;48.818;9.312;2023-04-15T15:58:13;11.10;99.90
18173;DHT22;9211;48.818;9.312;2023-04-15T16:00:40;11.10;99.90
18173;DHT22;9211;48.818;9.312;2023-04-15T16:03:07;11.10;99.90
18173;DHT22;9211;48.818;9.312;2023-04-15T16:05:34;11.10;99.90
18173;DHT22;9211;48.818;9.312;2023-04-15T16:08:02;11.00;99.90